createdAt,value
2019-03-31T00:00:36.062Z,9.89
2019-03-31T00:01:36.048Z,9.87
2019-03-31T00:02:36.029Z,9.89
2019-03-31T00:03:36.015Z,9.86
2019-03-31T00:04:36.004Z,9.87
2019-03-31T00:05:37.382Z,9.80
2019-03-31T00:06:36.015Z,9.73
2019-03-31T00:07:35.972Z,9.79
2019-03-31T00:08:35.962Z,9.80
2019-03-31T00:09:35.954Z,9.74
2019-03-31T00:10:35.937Z,9.64
2019-03-31T00:11:35.947Z,9.66
2019-03-31T00:12:35.924Z,9.69
2019-03-31T00:13:35.924Z,9.64
2019-03-31T00:14:35.893Z,9.62
2019-03-31T00:15:35.885Z,9.58
2019-03-31T00:16:35.878Z,9.62
2019-03-31T00:17:35.877Z,9.66
2019-03-31T00:18:35.872Z,9.66
2019-03-31T00:19:35.850Z,9.65
2019-03-31T00:20:35.835Z,9.66
2019-03-31T00:21:35.817Z,9.68
2019-03-31T00:22:35.812Z,9.66
2019-03-31T00:23:35.816Z,9.62
2019-03-31T00:24:35.791Z,9.58
2019-03-31T00:25:35.789Z,9.62
2019-03-31T00:26:35.763Z,9.64
2019-03-31T00:27:35.776Z,9.56
2019-03-31T00:28:35.744Z,9.64
2019-03-31T00:29:35.752Z,9.65
2019-03-31T04:00:32.589Z,7.61
2019-03-31T04:01:32.561Z,7.60
2019-03-31T04:02:32.574Z,7.61
2019-03-31T04:03:32.536Z,7.58
2019-03-31T04:04:32.525Z,7.58
2019-03-31T04:05:32.520Z,7.83
2019-03-31T04:06:32.528Z,7.82
2019-03-31T04:07:32.497Z,7.85
2019-03-31T04:08:32.515Z,7.94
2019-03-31T04:09:32.471Z,8.03
2019-03-31T04:10:32.473Z,8.03
2019-03-31T04:11:32.454Z,8.18
2019-03-31T04:12:32.467Z,8.20
2019-03-31T04:13:32.451Z,8.23
2019-03-31T04:14:32.432Z,8.28
2019-03-31T04:15:32.414Z,8.41
2019-03-31T04:16:32.400Z,8.36
2019-03-31T04:17:32.410Z,8.37
2019-03-31T04:18:32.398Z,8.42
2019-03-31T04:19:32.389Z,8.52
2019-03-31T04:20:32.362Z,8.41
2019-03-31T04:21:32.346Z,8.51
2019-03-31T04:22:32.342Z,8.60
2019-03-31T04:23:32.330Z,8.60
2019-03-31T04:24:32.363Z,8.69
2019-03-31T04:25:32.308Z,8.71
2019-03-31T04:26:32.295Z,8.74
2019-03-31T04:27:32.308Z,8.78
2019-03-31T04:28:32.297Z,8.89
2019-03-31T04:29:32.260Z,8.82
2019-03-31T04:30:32.276Z,8.89
2019-03-31T04:31:32.242Z,8.92
2019-03-31T04:32:32.233Z,8.92
2019-03-31T04:33:49.634Z,8.94
2019-03-31T04:34:33.231Z,9.00
2019-03-31T04:35:32.238Z,9.00
2019-03-31T04:36:32.218Z,9.04
2019-03-31T04:37:32.179Z,9.03
2019-03-31T04:38:32.170Z,9.06
2019-03-31T04:39:32.159Z,9.04
2019-03-31T04:40:32.142Z,9.08
2019-03-31T04:41:32.149Z,9.08
2019-03-31T04:42:32.149Z,9.04
2019-03-31T04:43:32.119Z,9.14
2019-03-31T04:44:32.108Z,9.03
2019-03-31T04:45:32.096Z,9.08
2019-03-31T04:46:32.103Z,9.16
2019-03-31T04:47:32.082Z,9.16
2019-03-31T04:48:32.070Z,9.10
2019-03-31T04:49:32.092Z,9.23
2019-03-31T04:50:32.043Z,9.19
2019-03-31T04:51:32.049Z,9.16
2019-03-31T04:52:32.043Z,9.23
2019-03-31T04:53:32.011Z,9.28
2019-03-31T04:54:31.999Z,9.21
2019-03-31T04:55:31.987Z,9.23
2019-03-31T04:56:31.978Z,9.40
2019-03-31T04:57:32.021Z,9.43
2019-03-31T04:58:31.951Z,9.34
2019-03-31T04:59:31.947Z,9.46
2019-03-31T05:00:31.934Z,9.44
2019-03-31T05:01:31.925Z,9.47
2019-03-31T05:02:31.915Z,9.50
2019-03-31T05:03:31.945Z,9.61
2019-03-31T05:04:31.889Z,9.47
2019-03-31T05:05:31.883Z,9.58
2019-03-31T05:06:31.866Z,9.51
2019-03-31T05:07:31.880Z,9.54
2019-03-31T05:08:31.850Z,9.64
2019-03-31T05:09:31.841Z,9.64
2019-03-31T05:10:31.847Z,9.61
2019-03-31T05:11:31.825Z,9.55
2019-03-31T05:12:31.809Z,9.72
2019-03-31T05:13:31.818Z,9.66
2019-03-31T05:14:31.788Z,9.64
2019-03-31T05:15:31.772Z,9.76
2019-03-31T05:16:31.766Z,9.73
2019-03-31T05:17:31.779Z,9.76
2019-03-31T05:18:31.762Z,9.83
2019-03-31T05:19:31.747Z,9.89
2019-03-31T05:20:31.729Z,9.80
2019-03-31T05:21:31.731Z,9.86
2019-03-31T05:22:31.703Z,9.89
2019-03-31T05:23:31.690Z,9.87
2019-03-31T05:24:31.693Z,9.89
2019-03-31T05:25:31.710Z,10.02
2019-03-31T05:26:31.664Z,9.86
2019-03-31T05:27:31.645Z,10.04
2019-03-31T05:28:31.639Z,9.95
2019-03-31T05:29:31.622Z,10.02
2019-03-31T05:30:31.626Z,10.05
2019-03-31T05:31:31.626Z,10.12
2019-03-31T05:32:31.616Z,10.16
2019-03-31T05:33:31.584Z,10.19
2019-03-31T05:34:31.574Z,10.22
2019-03-31T05:35:31.560Z,10.28
2019-03-31T05:36:31.548Z,10.30
2019-03-31T05:37:31.552Z,10.33
2019-03-31T05:38:31.552Z,10.41
2019-03-31T05:39:31.522Z,10.37
2019-03-31T05:40:31.513Z,10.51
2019-03-31T05:41:31.511Z,10.54
2019-03-31T05:42:31.496Z,10.44
2019-03-31T05:43:31.479Z,10.46
2019-03-31T05:44:31.467Z,10.56
2019-03-31T05:45:31.479Z,10.63
2019-03-31T05:46:31.464Z,10.75
2019-03-31T05:47:31.435Z,11.00
2019-03-31T05:48:31.421Z,11.15
2019-03-31T05:49:31.418Z,11.40
2019-03-31T05:50:31.395Z,11.59
2019-03-31T05:51:31.431Z,11.78
2019-03-31T05:52:31.380Z,12.02
2019-03-31T05:53:31.367Z,12.10
2019-03-31T05:54:31.360Z,12.32
2019-03-31T05:55:31.342Z,12.45
2019-03-31T05:56:31.334Z,12.64
2019-03-31T05:57:31.364Z,12.80
2019-03-31T05:58:31.316Z,12.82
2019-03-31T05:59:31.303Z,13.01
2019-03-31T06:00:31.291Z,13.16
2019-03-31T06:01:31.280Z,13.23
2019-03-31T06:02:31.266Z,13.47
2019-03-31T06:03:31.298Z,13.59
2019-03-31T06:04:33.338Z,13.52
2019-03-31T06:05:31.242Z,13.72
2019-03-31T06:06:31.236Z,13.59
2019-03-31T06:07:31.233Z,13.75
2019-03-31T06:08:31.222Z,13.90
2019-03-31T06:09:31.225Z,13.90
2019-03-31T06:10:31.182Z,14.03
2019-03-31T06:11:31.180Z,14.29
2019-03-31T06:12:31.183Z,14.43
2019-03-31T06:13:31.155Z,14.62
2019-03-31T06:14:31.146Z,14.89
2019-03-31T06:15:31.160Z,15.15
2019-03-31T06:16:31.122Z,15.29
2019-03-31T06:17:31.111Z,15.47
2019-03-31T06:18:31.130Z,15.61
2019-03-31T06:19:31.087Z,15.64
2019-03-31T06:20:31.075Z,15.77
2019-03-31T06:21:31.095Z,15.88
2019-03-31T06:22:31.057Z,16.05
2019-03-31T06:23:31.050Z,16.17
2019-03-31T06:24:31.054Z,16.20
2019-03-31T06:25:31.061Z,16.36
2019-03-31T06:26:31.020Z,16.58
2019-03-31T06:27:31.002Z,16.65
2019-03-31T06:28:31.018Z,16.69
2019-03-31T06:29:31.005Z,16.84
2019-03-31T06:30:30.981Z,16.97
2019-03-31T06:31:30.957Z,16.97
2019-03-31T06:32:30.950Z,17.19
2019-03-31T06:33:30.937Z,17.19
2019-03-31T06:34:30.935Z,17.30
2019-03-31T06:35:30.939Z,17.45
2019-03-31T06:36:30.907Z,17.48
2019-03-31T06:37:30.897Z,17.46
2019-03-31T06:38:30.888Z,17.59
2019-03-31T06:39:34.122Z,17.71
2019-03-31T06:40:30.915Z,17.70
2019-03-31T06:41:30.850Z,17.48
2019-03-31T06:42:30.837Z,17.38
2019-03-31T06:43:30.835Z,17.16
2019-03-31T06:44:30.821Z,16.93
2019-03-31T06:45:30.808Z,16.74
2019-03-31T06:46:30.821Z,16.50
2019-03-31T06:47:30.805Z,16.41
2019-03-31T06:48:30.780Z,16.35
2019-03-31T06:49:30.765Z,16.35
2019-03-31T06:50:30.764Z,16.38
2019-03-31T06:51:30.759Z,16.39
2019-03-31T06:52:30.734Z,16.33
2019-03-31T06:53:30.723Z,16.39
2019-03-31T06:54:30.708Z,16.35
2019-03-31T06:55:30.705Z,16.35
2019-03-31T06:56:30.708Z,16.28
2019-03-31T06:57:30.680Z,16.35
2019-03-31T06:58:30.671Z,16.38
2019-03-31T06:59:30.657Z,16.53
2019-03-31T07:00:30.655Z,16.51
2019-03-31T07:01:30.659Z,16.61
2019-03-31T07:02:30.637Z,16.60
2019-03-31T07:03:30.613Z,16.66
2019-03-31T07:04:30.651Z,16.49
2019-03-31T07:05:30.590Z,16.41
2019-03-31T07:06:30.597Z,16.39
2019-03-31T07:07:30.600Z,16.24
2019-03-31T07:08:30.558Z,16.26
2019-03-31T07:09:30.551Z,16.28
2019-03-31T07:10:30.545Z,16.23
2019-03-31T07:11:30.569Z,16.09
2019-03-31T07:12:30.531Z,16.02
2019-03-31T07:13:30.504Z,15.90
2019-03-31T07:14:30.509Z,15.84
2019-03-31T07:15:30.501Z,15.83
2019-03-31T07:16:30.475Z,15.76
2019-03-31T07:17:30.483Z,15.79
2019-03-31T07:18:30.452Z,15.84
2019-03-31T07:19:30.443Z,15.90
2019-03-31T07:20:30.436Z,15.92
2019-03-31T07:21:30.425Z,16.10
2019-03-31T07:22:30.409Z,16.24
2019-03-31T07:23:30.425Z,16.38
2019-03-31T07:24:30.385Z,16.68
2019-03-31T07:25:30.376Z,16.75
2019-03-31T07:26:30.427Z,16.90
2019-03-31T07:27:30.382Z,17.15
2019-03-31T07:28:30.361Z,17.24
2019-03-31T07:29:30.334Z,17.29
2019-03-31T07:30:30.323Z,17.41
2019-03-31T07:31:30.307Z,17.42
2019-03-31T07:32:30.315Z,17.48
2019-03-31T07:33:30.309Z,17.33
2019-03-31T07:34:30.280Z,17.24
2019-03-31T07:35:30.263Z,17.30
2019-03-31T07:36:30.266Z,17.34
2019-03-31T07:37:30.243Z,17.36
2019-03-31T07:38:38.661Z,17.24
2019-03-31T07:39:31.250Z,17.16
2019-03-31T07:40:30.523Z,17.05
2019-03-31T07:41:30.380Z,16.90
2019-03-31T07:42:30.324Z,16.81
2019-03-31T07:43:30.176Z,16.90
2019-03-31T07:44:30.168Z,16.86
2019-03-31T07:45:30.176Z,16.84
2019-03-31T07:46:30.183Z,17.23
2019-03-31T07:47:30.139Z,17.48
2019-03-31T07:48:30.126Z,17.76
2019-03-31T07:49:30.170Z,18.19
2019-03-31T07:50:30.109Z,18.43
2019-03-31T07:51:30.116Z,18.68
2019-03-31T07:52:30.092Z,18.95
2019-03-31T07:53:30.070Z,19.19
2019-03-31T07:54:30.078Z,19.30
2019-03-31T07:55:30.049Z,19.49
2019-03-31T07:56:30.050Z,19.66
2019-03-31T07:57:30.056Z,19.82
2019-03-31T07:58:30.015Z,19.99
2019-03-31T07:59:30.078Z,20.02
2019-03-31T08:00:29.997Z,20.02
2019-03-31T08:01:29.984Z,20.09
2019-03-31T08:02:30.044Z,20.10
2019-03-31T08:03:29.969Z,20.02
2019-03-31T08:04:29.997Z,19.99
2019-03-31T08:05:33.494Z,19.79
2019-03-31T08:06:30.943Z,19.76
2019-03-31T08:07:29.918Z,19.51
2019-03-31T08:08:29.921Z,19.27
2019-03-31T08:09:29.916Z,19.19
2019-03-31T08:10:29.972Z,18.92
2019-03-31T08:11:29.880Z,18.84
2019-03-31T08:12:29.899Z,18.71
2019-03-31T08:13:29.874Z,18.58
2019-03-31T08:14:29.859Z,18.49
2019-03-31T08:15:29.834Z,18.41
2019-03-31T08:16:29.823Z,18.44
2019-03-31T08:17:29.901Z,18.35
2019-03-31T08:18:29.801Z,18.41
2019-03-31T08:19:29.794Z,18.38
2019-03-31T08:20:29.785Z,18.35
2019-03-31T08:21:29.792Z,18.25
2019-03-31T08:22:29.754Z,18.28
2019-03-31T08:23:29.791Z,18.01
2019-03-31T08:24:29.793Z,18.04
2019-03-31T08:25:29.729Z,17.95
2019-03-31T08:26:29.719Z,17.82
2019-03-31T08:27:29.717Z,17.63
2019-03-31T08:28:29.692Z,17.44
2019-03-31T08:29:29.691Z,17.19
2019-03-31T08:30:29.674Z,16.94
2019-03-31T08:31:29.678Z,16.64
2019-03-31T08:32:29.671Z,16.41
2019-03-31T08:33:29.641Z,16.12
2019-03-31T08:34:29.660Z,15.92
2019-03-31T08:35:29.632Z,15.64
2019-03-31T08:36:29.607Z,15.49
2019-03-31T08:37:29.614Z,15.25
2019-03-31T08:38:29.593Z,14.99
2019-03-31T08:39:29.570Z,14.84
2019-03-31T08:40:29.563Z,14.70
2019-03-31T08:41:29.577Z,14.47
2019-03-31T08:42:29.575Z,14.36
2019-03-31T08:43:29.533Z,14.15
2019-03-31T08:44:29.521Z,13.99
2019-03-31T08:45:30.609Z,13.89
2019-03-31T08:46:29.501Z,13.79
2019-03-31T08:47:29.490Z,13.74
2019-03-31T08:48:29.498Z,13.53
2019-03-31T08:49:29.468Z,13.47
2019-03-31T08:50:29.452Z,13.42
2019-03-31T08:51:29.451Z,13.28
2019-03-31T08:52:29.457Z,13.28
2019-03-31T08:53:29.425Z,13.28
2019-03-31T08:54:29.416Z,13.16
2019-03-31T08:55:29.408Z,13.13
2019-03-31T08:56:29.394Z,12.98
2019-03-31T08:57:29.383Z,13.00
2019-03-31T08:58:29.391Z,12.97
2019-03-31T08:59:29.358Z,12.94
2019-03-31T09:00:29.349Z,12.87
2019-03-31T09:01:29.379Z,12.86
2019-03-31T09:02:29.345Z,12.76
2019-03-31T09:03:29.320Z,12.75
2019-03-31T09:04:29.320Z,12.68
2019-03-31T09:05:29.306Z,12.73
2019-03-31T09:06:29.290Z,12.68
2019-03-31T09:07:29.357Z,12.54
2019-03-31T09:08:29.263Z,12.50
2019-03-31T09:09:29.258Z,12.45
2019-03-31T09:10:29.340Z,12.27
2019-03-31T09:11:29.241Z,12.20
2019-03-31T09:12:29.242Z,12.18
2019-03-31T09:13:29.211Z,12.06
2019-03-31T09:14:29.212Z,12.03
2019-03-31T09:15:29.219Z,12.00
2019-03-31T09:16:29.206Z,11.81
2019-03-31T09:17:29.170Z,11.86
2019-03-31T09:18:29.161Z,11.87
2019-03-31T09:19:29.158Z,11.84
2019-03-31T09:20:29.134Z,11.70
2019-03-31T09:21:29.136Z,11.62
2019-03-31T09:22:29.120Z,11.83
2019-03-31T09:23:29.104Z,11.72
2019-03-31T09:24:29.096Z,11.70
2019-03-31T09:25:29.132Z,11.63
2019-03-31T09:26:29.071Z,11.59
2019-03-31T09:27:29.063Z,11.52
2019-03-31T09:28:29.053Z,11.48
2019-03-31T09:29:29.040Z,11.59
2019-03-31T09:30:29.050Z,11.48
2019-03-31T09:31:29.052Z,11.47
2019-03-31T09:32:29.003Z,11.40
2019-03-31T09:33:28.992Z,11.41
2019-03-31T09:34:28.987Z,11.44
2019-03-31T09:35:28.996Z,11.44
2019-03-31T09:36:28.965Z,11.40
2019-03-31T09:37:28.998Z,11.32
2019-03-31T09:38:28.947Z,11.33
2019-03-31T09:39:28.930Z,11.30
2019-03-31T09:40:28.919Z,11.29
2019-03-31T09:41:28.925Z,11.29
2019-03-31T09:42:28.902Z,11.27
2019-03-31T09:43:28.889Z,11.30
2019-03-31T09:44:30.382Z,11.23
2019-03-31T09:45:28.864Z,11.23
2019-03-31T09:46:28.872Z,11.14
2019-03-31T09:47:28.846Z,11.17
2019-03-31T09:48:28.840Z,11.14
2019-03-31T09:49:28.827Z,11.14
2019-03-31T09:50:28.817Z,11.11
2019-03-31T09:51:28.846Z,11.07
2019-03-31T09:52:28.802Z,11.05
2019-03-31T09:53:28.777Z,10.97
2019-03-31T09:54:28.766Z,10.96
2019-03-31T09:55:28.770Z,10.84
2019-03-31T09:56:28.765Z,10.89
2019-03-31T09:57:28.734Z,10.92
2019-03-31T09:58:28.814Z,10.79
2019-03-31T09:59:28.718Z,10.69
2019-03-31T10:00:28.724Z,10.69
2019-03-31T10:01:28.713Z,10.68
2019-03-31T10:02:28.708Z,10.53
2019-03-31T10:03:28.670Z,10.48
2019-03-31T10:04:28.685Z,10.42
2019-03-31T10:05:28.650Z,10.34
2019-03-31T10:06:30.431Z,10.33
2019-03-31T10:07:28.638Z,10.28
2019-03-31T10:08:28.664Z,10.25
2019-03-31T10:09:28.616Z,10.23
2019-03-31T10:10:28.602Z,10.07
2019-03-31T10:11:28.586Z,10.09
2019-03-31T10:12:28.576Z,10.02
2019-03-31T10:13:28.646Z,10.10
2019-03-31T10:14:28.557Z,10.04
2019-03-31T10:15:28.559Z,10.01
2019-03-31T10:16:28.535Z,9.99
2019-03-31T10:17:28.520Z,10.04
2019-03-31T10:18:28.531Z,10.02
2019-03-31T10:19:28.502Z,9.99
2019-03-31T10:20:31.259Z,9.97
2019-03-31T10:21:28.491Z,10.05
2019-03-31T10:22:28.470Z,9.83
2019-03-31T10:23:28.474Z,9.99
2019-03-31T10:24:28.444Z,9.94
2019-03-31T10:25:28.434Z,9.99
2019-03-31T10:26:32.322Z,10.01
2019-03-31T10:27:28.416Z,10.04
2019-03-31T10:28:28.408Z,10.01
2019-03-31T10:29:28.407Z,10.02
2019-03-31T10:30:28.381Z,10.09
2019-03-31T10:31:28.379Z,10.17
2019-03-31T10:32:28.371Z,10.09
2019-03-31T10:33:28.353Z,10.09
2019-03-31T10:34:28.364Z,10.05
2019-03-31T10:35:28.329Z,10.09
2019-03-31T10:36:28.317Z,10.16
2019-03-31T10:37:28.309Z,10.16
2019-03-31T10:38:28.298Z,10.19
2019-03-31T10:39:28.329Z,10.19
2019-03-31T10:40:28.306Z,10.23
2019-03-31T10:41:30.857Z,10.26
2019-03-31T10:42:28.269Z,10.25
2019-03-31T10:43:28.245Z,10.31
2019-03-31T10:44:28.250Z,10.30
2019-03-31T10:45:28.253Z,10.30
2019-03-31T10:46:28.212Z,10.31
2019-03-31T10:47:28.205Z,10.35
2019-03-31T10:48:28.189Z,10.41
2019-03-31T10:49:28.177Z,10.37
2019-03-31T10:50:28.180Z,10.38
2019-03-31T10:51:28.175Z,10.40
2019-03-31T10:52:28.158Z,10.40
2019-03-31T10:53:28.142Z,10.48
2019-03-31T10:54:28.128Z,10.57
2019-03-31T10:55:28.118Z,10.61
2019-03-31T10:56:28.117Z,10.69
2019-03-31T10:57:28.097Z,10.69
2019-03-31T10:58:28.089Z,10.78
2019-03-31T10:59:28.076Z,10.75
2019-03-31T11:00:28.082Z,10.87
2019-03-31T11:01:28.066Z,10.74
2019-03-31T11:02:28.043Z,10.87
2019-03-31T11:03:28.035Z,10.89
2019-03-31T11:04:28.033Z,10.92
2019-03-31T11:05:28.011Z,10.97
2019-03-31T11:06:28.087Z,10.99
2019-03-31T11:07:28.033Z,11.00
2019-03-31T11:08:27.974Z,11.08
2019-03-31T11:09:28.003Z,11.15
2019-03-31T11:10:27.956Z,11.10
2019-03-31T11:11:27.968Z,11.14
2019-03-31T11:12:27.939Z,11.12
2019-03-31T11:13:27.930Z,11.18
2019-03-31T11:14:27.927Z,11.17
2019-03-31T11:15:27.899Z,11.32
2019-03-31T11:16:27.887Z,11.30
2019-03-31T11:17:27.943Z,11.37
2019-03-31T11:18:27.874Z,11.30
2019-03-31T11:19:27.858Z,11.36
2019-03-31T11:20:27.846Z,11.51
2019-03-31T11:21:27.916Z,11.43
2019-03-31T11:22:27.834Z,11.52
2019-03-31T11:23:27.890Z,11.59
2019-03-31T11:24:27.812Z,11.63
2019-03-31T11:25:29.473Z,11.81
2019-03-31T11:26:27.785Z,11.83
2019-03-31T11:27:27.774Z,11.75
2019-03-31T11:28:27.758Z,11.86
2019-03-31T11:29:27.771Z,11.87
2019-03-31T11:30:27.752Z,11.95
2019-03-31T11:31:27.754Z,12.10
2019-03-31T11:32:27.743Z,12.15
2019-03-31T12:05:57.789Z,13.89
2019-03-31T12:06:57.777Z,14.04
2019-03-31T12:07:57.764Z,14.15
2019-03-31T12:08:57.752Z,14.15
2019-03-31T12:09:57.764Z,14.26
2019-03-31T12:10:57.799Z,14.44
2019-03-31T12:11:57.727Z,14.51
2019-03-31T12:12:57.710Z,14.59
2019-03-31T12:13:57.700Z,14.79
2019-03-31T12:15:00.743Z,14.97
2019-03-31T12:15:57.697Z,15.03
2019-03-31T12:16:57.672Z,15.24
2019-03-31T12:17:57.669Z,15.28
2019-03-31T12:18:57.647Z,15.47
2019-03-31T12:19:57.636Z,15.46
2019-03-31T12:20:57.636Z,15.54
2019-03-31T12:21:57.614Z,15.67
2019-03-31T12:22:57.617Z,15.80
2019-03-31T12:23:57.599Z,15.94
2019-03-31T12:24:57.588Z,16.10
2019-03-31T12:25:57.639Z,16.21
2019-03-31T12:26:57.567Z,16.32
2019-03-31T12:27:57.549Z,16.36
2019-03-31T12:28:57.547Z,16.50
2019-03-31T12:29:57.538Z,16.60
2019-03-31T12:30:57.538Z,16.69
2019-03-31T12:31:57.572Z,16.64
2019-03-31T12:32:57.498Z,16.86
2019-03-31T12:33:57.488Z,16.99
2019-03-31T12:34:57.507Z,17.38
2019-03-31T12:35:57.468Z,17.42
2019-03-31T12:36:57.489Z,17.52
2019-03-31T12:37:57.451Z,17.72
2019-03-31T12:38:57.431Z,17.80
2019-03-31T12:39:57.422Z,17.76
2019-03-31T12:40:57.443Z,17.76
2019-03-31T12:41:57.421Z,17.68
2019-03-31T12:42:57.393Z,17.56
2019-03-31T12:43:57.382Z,17.49
2019-03-31T12:44:57.365Z,17.76
2019-03-31T12:45:57.444Z,17.89
2019-03-31T12:46:57.346Z,18.28
2019-03-31T12:48:00.862Z,18.31
2019-03-31T12:48:57.341Z,18.49
2019-03-31T12:49:57.332Z,18.74
2019-03-31T12:50:57.300Z,18.89
2019-03-31T12:51:57.320Z,18.84
2019-03-31T12:52:57.301Z,19.18
2019-03-31T12:53:57.268Z,19.18
2019-03-31T12:54:57.263Z,19.36
2019-03-31T12:56:00.423Z,19.55
2019-03-31T12:56:57.240Z,19.69
2019-03-31T12:57:57.243Z,19.70
2019-03-31T12:58:57.248Z,19.82
2019-03-31T12:59:57.201Z,19.56
2019-03-31T13:00:57.198Z,19.22
2019-03-31T13:01:57.185Z,19.11
2019-03-31T13:02:57.173Z,18.92
2019-03-31T13:03:57.180Z,18.55
2019-03-31T13:04:57.211Z,18.41
2019-03-31T13:05:57.147Z,18.26
2019-03-31T13:06:57.130Z,18.16
2019-03-31T13:07:57.171Z,18.15
2019-03-31T13:08:57.167Z,18.01
2019-03-31T13:09:57.119Z,17.90
2019-03-31T13:10:57.087Z,17.89
2019-03-31T13:11:57.078Z,18.05
2019-03-31T13:12:57.066Z,18.15
2019-03-31T13:13:57.073Z,18.22
2019-03-31T13:14:57.047Z,18.31
2019-03-31T13:15:57.037Z,18.44
2019-03-31T13:16:57.037Z,18.58
2019-03-31T13:17:57.012Z,18.65
2019-03-31T13:18:57.032Z,18.70
2019-03-31T13:19:56.994Z,18.65
2019-03-31T13:20:56.983Z,18.73
2019-03-31T13:21:56.976Z,18.68
2019-03-31T13:22:56.965Z,18.73
2019-03-31T13:23:56.960Z,18.73
2019-03-31T13:24:56.950Z,18.58
2019-03-31T13:25:57.020Z,18.59
2019-03-31T13:26:56.917Z,18.66
2019-03-31T13:27:56.915Z,18.68
2019-03-31T13:28:56.895Z,18.59
2019-03-31T13:29:56.925Z,18.56
2019-03-31T13:30:56.875Z,18.45
2019-03-31T13:31:56.860Z,18.41
2019-03-31T13:32:56.853Z,18.40
2019-03-31T13:33:56.848Z,18.29
2019-03-31T13:34:56.844Z,18.22
2019-03-31T13:35:56.857Z,18.16
2019-03-31T13:36:56.804Z,18.07
2019-03-31T13:38:09.952Z,17.94
2019-03-31T13:38:57.791Z,17.94
2019-03-31T13:39:56.778Z,17.87
2019-03-31T13:40:56.784Z,17.97
2019-03-31T13:41:56.796Z,17.92
2019-03-31T13:42:56.744Z,17.92
2019-03-31T13:43:56.731Z,17.92
2019-03-31T13:44:56.718Z,18.00
2019-03-31T13:45:59.956Z,18.05
2019-03-31T13:46:56.727Z,18.11
2019-03-31T13:47:58.643Z,18.15
2019-03-31T13:48:56.678Z,18.18
2019-03-31T13:49:56.667Z,18.20
2019-03-31T13:50:56.657Z,18.18
2019-03-31T13:51:56.649Z,18.16
2019-03-31T13:52:56.654Z,18.20
2019-03-31T13:53:56.671Z,18.16
2019-03-31T13:54:56.610Z,18.19
2019-03-31T13:55:56.604Z,18.25
2019-03-31T13:56:57.066Z,18.26
2019-03-31T13:57:58.002Z,18.23
2019-03-31T13:58:56.570Z,18.22
2019-03-31T13:59:56.569Z,18.19
2019-03-31T14:00:57.369Z,18.18
2019-03-31T14:01:59.958Z,18.04
2019-03-31T14:02:56.528Z,18.04
2019-03-31T14:03:56.533Z,18.01
2019-03-31T14:04:56.520Z,17.86
2019-03-31T14:05:56.492Z,17.90
2019-03-31T14:06:56.512Z,17.85
2019-03-31T14:07:56.591Z,17.78
2019-03-31T14:08:56.474Z,17.74
2019-03-31T14:09:56.452Z,17.76
2019-03-31T14:10:56.439Z,17.68
2019-03-31T14:11:56.436Z,17.59
2019-03-31T14:12:56.420Z,17.65
2019-03-31T14:13:56.411Z,17.56
2019-03-31T14:14:56.416Z,17.45
2019-03-31T14:15:56.380Z,17.46
2019-03-31T14:16:56.371Z,17.29
2019-03-31T14:17:56.378Z,17.19
2019-03-31T14:18:56.353Z,17.08
2019-03-31T14:19:56.367Z,17.06
2019-03-31T14:20:56.335Z,17.01
2019-03-31T14:21:56.332Z,16.94
2019-03-31T14:22:56.309Z,16.97
2019-03-31T14:23:56.301Z,16.89
2019-03-31T14:24:56.288Z,16.83
2019-03-31T14:25:56.291Z,16.75
2019-03-31T14:26:56.262Z,16.74
2019-03-31T14:27:56.255Z,16.71
2019-03-31T14:28:56.241Z,16.66
2019-03-31T14:29:56.258Z,16.58
2019-03-31T14:30:56.229Z,16.60
2019-03-31T14:31:56.216Z,16.54
2019-03-31T14:32:56.203Z,16.54
2019-03-31T14:33:56.186Z,16.61
2019-03-31T14:34:56.174Z,16.50
2019-03-31T14:35:56.176Z,16.58
2019-03-31T14:36:56.160Z,16.53
2019-03-31T14:37:56.201Z,16.61
2019-03-31T14:38:56.137Z,16.58
2019-03-31T14:39:56.136Z,16.68
2019-03-31T14:40:56.128Z,16.64
2019-03-31T14:41:56.119Z,16.64
2019-03-31T14:42:56.092Z,16.64
2019-03-31T14:43:56.078Z,16.61
2019-03-31T14:44:56.066Z,16.50
2019-03-31T14:45:56.098Z,16.43
2019-03-31T14:46:56.049Z,16.46
2019-03-31T14:47:56.030Z,16.39
2019-03-31T14:48:56.017Z,16.38
2019-03-31T14:49:56.007Z,16.33
2019-03-31T14:50:56.100Z,16.32
2019-03-31T14:51:56.008Z,16.29
2019-03-31T14:52:55.982Z,16.32
2019-03-31T14:53:55.963Z,16.35
2019-03-31T14:54:56.092Z,16.39
2019-03-31T14:55:55.995Z,16.46
2019-03-31T14:56:55.954Z,16.47
2019-03-31T14:57:55.929Z,16.33
2019-03-31T14:58:56.046Z,16.33
2019-03-31T14:59:55.898Z,16.28
2019-03-31T15:00:55.893Z,16.28
2019-03-31T15:01:55.880Z,16.17
2019-03-31T15:02:55.892Z,16.12
2019-03-31T15:03:55.862Z,16.08
2019-03-31T15:04:55.864Z,16.21
2019-03-31T15:05:55.843Z,16.28
2019-03-31T15:06:55.845Z,16.24
2019-03-31T15:07:58.488Z,16.21
2019-03-31T15:08:55.810Z,16.36
2019-03-31T15:09:55.806Z,16.36
2019-03-31T15:10:55.784Z,16.35
2019-03-31T15:11:55.766Z,16.41
2019-03-31T15:12:55.826Z,16.46
2019-03-31T15:13:55.776Z,16.49
2019-03-31T15:14:55.738Z,16.49
2019-03-31T15:15:55.729Z,16.42
2019-03-31T15:16:55.727Z,16.38
2019-03-31T15:17:55.726Z,16.39
2019-03-31T15:18:55.708Z,16.38
2019-03-31T15:19:55.697Z,16.35
2019-03-31T15:20:55.687Z,16.33
2019-03-31T15:21:55.665Z,16.41
2019-03-31T15:22:55.648Z,16.39
2019-03-31T15:23:55.761Z,16.38
2019-03-31T15:24:55.623Z,16.35
2019-03-31T15:25:55.614Z,16.41
2019-03-31T15:26:55.605Z,16.33
2019-03-31T15:27:55.608Z,16.41
2019-03-31T15:28:55.586Z,16.31
2019-03-31T15:29:55.587Z,16.31
2019-03-31T15:30:55.561Z,16.20
2019-03-31T15:31:55.581Z,16.31
2019-03-31T15:32:55.537Z,16.26
2019-03-31T15:33:55.529Z,16.20
2019-03-31T15:34:55.577Z,16.24
2019-03-31T15:35:55.517Z,16.26
2019-03-31T15:36:55.547Z,16.20
2019-03-31T15:37:55.487Z,16.13
2019-03-31T15:39:08.120Z,16.17
2019-03-31T15:39:56.483Z,16.09
2019-03-31T15:40:55.458Z,16.16
2019-03-31T15:41:55.514Z,16.12
2019-03-31T15:42:55.433Z,16.12
2019-03-31T15:43:55.457Z,16.05
2019-03-31T15:44:55.435Z,15.97
2019-03-31T17:36:32.031Z,10.57
2019-03-31T19:39:11.539Z,8.49
2019-03-31T19:40:09.363Z,8.48
2019-03-31T19:51:32.657Z,8.49
2019-03-31T20:24:32.270Z,8.08
2019-03-31T20:29:36.856Z,8.00
2019-03-31T20:30:36.768Z,8.06
2019-03-31T20:31:36.820Z,8.05
2019-03-31T20:32:37.317Z,8.10
2019-03-31T20:33:36.727Z,8.03
2019-03-31T20:44:41.994Z,8.05
2019-03-31T20:45:42.019Z,8.08
2019-03-31T20:46:41.979Z,8.00
2019-03-31T20:48:40.273Z,7.97
2019-03-31T20:55:16.112Z,8.06
2019-03-31T21:49:14.966Z,7.13
2019-03-31T21:56:46.180Z,7.02
2019-03-31T22:58:33.084Z,5.87
2019-03-31T22:59:32.962Z,5.84
2019-03-31T23:00:32.962Z,5.93
2019-03-31T23:01:33.007Z,5.90
2019-03-31T23:02:32.960Z,5.89
2019-03-31T23:03:32.939Z,5.89
2019-03-31T23:04:32.981Z,5.98
2019-03-31T23:05:32.927Z,5.98
2019-03-31T23:06:32.888Z,5.99
2019-03-31T23:07:32.891Z,6.01
2019-03-31T23:08:32.905Z,5.97
2019-03-31T23:09:34.502Z,6.05
2019-03-31T23:10:32.874Z,6.07
2019-03-31T23:11:32.927Z,6.04
2019-03-31T23:12:32.838Z,6.07
2019-03-31T23:13:32.818Z,6.12
2019-03-31T23:14:32.822Z,6.14
2019-03-31T23:15:32.834Z,6.12
2019-03-31T23:16:32.804Z,6.14
2019-03-31T23:17:32.792Z,6.11
2019-03-31T23:18:32.786Z,6.16
2019-03-31T23:19:32.787Z,6.16
2019-03-31T23:20:32.770Z,6.16
2019-03-31T23:21:32.801Z,6.16
2019-03-31T23:22:32.730Z,6.08
2019-03-31T23:23:32.776Z,6.22
2019-03-31T23:24:32.721Z,6.17
2019-03-31T23:25:32.738Z,6.09
2019-03-31T23:26:32.694Z,6.08
2019-03-31T23:27:32.706Z,6.12
2019-03-31T23:28:32.664Z,6.12
2019-03-31T23:29:32.681Z,6.11
